Terminal Aerodrome Forecast
Issued by NWS

Home | Current Version | Previous Version | Text Only | Print | Product List | Glossary On
Versions: 1 2 3 4 5 6 7 8 9 10 11 12 13 14 15 16 17 18 19 20 21 22 23 24 25 26 27 28 29 30 31 32
000
FTAK31 PAFA 290524
TAFASC
TAF
PASC 290524Z 2906/3006 32005KT P6SM OVC015
     FM290900 27006KT 6SM BR OVC007
     FM292100 30009KT P6SM BKN025
     FM300200 36008KT P6SM SCT100=

USA.gov is the U.S. government's official web portal to all federal, state and local government web resources and services.